Time;durP1;ratioP1;P1;durP2;ratioP2;P2;SDS_P1;SDS_P2;PMS_P1;PMS_P2;Temp;Humidity;BMP_temperature;BMP_pressure;BME280_temperature;BME280_humidity;BME280_pressure;Samples;Min_cycle;Max_cycle;Signal;HPM_P1;HPM_P2
2023/09/06 00:03:03;;;;;;;5.70;2.85;;;;;;;19.13;53.14;100497.22;7684737;32;40767;-83
2023/09/06 00:07:22;;;;;;;5.45;3.05;;;;;;;18.99;53.29;100498.37;7684704;32;38689;-84
2023/09/06 00:11:39;;;;;;;5.28;3.03;;;;;;;18.74;53.68;100506.91;7684885;32;36658;-83
2023/09/06 00:15:56;;;;;;;5.37;2.90;;;;;;;18.65;54.00;100508.75;7684766;32;39324;-84
2023/09/06 00:20:21;;;;;;;5.50;2.67;;;;;;;19.08;52.66;100516.69;7684689;32;39993;-84
2023/09/06 00:24:38;;;;;;;4.20;2.47;;;;;;;18.97;52.53;100506.97;7684598;32;38821;-85
2023/09/06 00:28:54;;;;;;;6.28;3.05;;;;;;;18.86;52.50;100503.62;7684698;32;37910;-83
2023/09/06 00:33:11;;;;;;;3.92;2.90;;;;;;;18.45;55.08;100504.47;7684497;32;39456;-82
2023/09/06 00:37:37;;;;;;;7.50;2.85;;;;;;;18.56;55.37;100500.38;7684322;32;40132;-83
2023/09/06 00:41:54;;;;;;;4.68;2.90;;;;;;;18.49;55.16;100497.22;7684014;32;38138;-84
2023/09/06 00:46:10;;;;;;;6.90;3.05;;;;;;;18.40;55.08;100496.28;7684142;32;36828;-84
2023/09/06 00:50:27;;;;;;;6.60;2.97;;;;;;;18.33;55.02;100501.41;7682644;32;40023;-83
2023/09/06 00:54:43;;;;;;;5.80;3.08;;;;;;;18.32;54.57;100492.31;7684053;32;40710;-82
2023/09/06 00:59:01;;;;;;;5.15;2.80;;;;;;;18.39;55.15;100498.25;7683883;32;38161;-83
2023/09/06 01:03:17;;;;;;;7.03;3.37;;;;;;;18.35;55.32;100508.28;7683862;32;36844;-83
2023/09/06 01:07:35;;;;;;;6.18;2.95;;;;;;;18.27;55.26;100506.22;7683904;32;39358;-83
2023/09/06 01:11:52;;;;;;;6.15;3.28;;;;;;;18.14;56.69;100505.09;7683659;32;39865;-84
2023/09/06 01:16:09;;;;;;;4.57;2.95;;;;;;;18.14;55.73;100507.03;7683512;32;38076;-83
2023/09/06 01:20:54;;;;;;;4.70;2.90;;;;;;;18.10;55.01;100509.56;7682351;32;37051;-83
2023/09/06 01:25:11;;;;;;;5.87;3.08;;;;;;;17.98;54.88;100509.25;7682538;32;39817;-83
2023/09/06 01:29:29;;;;;;;4.18;2.80;;;;;;;17.96;56.21;100515.06;7683197;32;40046;-85
2023/09/06 01:33:45;;;;;;;5.22;3.42;;;;;;;18.03;55.92;100511.91;7683096;32;37919;-83
2023/09/06 01:38:02;;;;;;;6.18;3.22;;;;;;;17.90;56.10;100520.97;7685291;32;37367;-83
2023/09/06 01:42:22;;;;;;;4.25;2.90;;;;;;;17.78;56.33;100518.66;7685814;32;40158;-82
2023/09/06 01:46:38;;;;;;;4.87;2.58;;;;;;;17.97;55.37;100510.38;7686410;32;39893;-83
2023/09/06 01:50:55;;;;;;;4.45;2.97;;;;;;;17.94;55.09;100514.56;7686489;32;37742;-83
2023/09/06 01:55:12;;;;;;;8.52;3.28;;;;;;;17.83;55.67;100521.34;7686137;32;37869;-84
2023/09/06 01:59:28;;;;;;;7.40;3.40;;;;;;;17.86;56.25;100517.16;7675055;32;40079;-83
2023/09/06 02:03:45;;;;;;;6.60;3.62;;;;;;;17.92;55.79;100522.31;7686241;32;40844;-83
2023/09/06 02:08:03;;;;;;;5.00;2.95;;;;;;;17.75;56.04;100520.09;7686119;32;37949;-83
2023/09/06 02:12:20;;;;;;;6.12;3.28;;;;;;;17.76;56.03;100512.66;7686175;32;36137;-84
2023/09/06 02:16:36;;;;;;;5.87;3.10;;;;;;;17.59;56.98;100515.97;7685951;32;39464;-83
2023/09/06 02:20:54;;;;;;;5.75;3.08;;;;;;;17.65;56.67;100521.09;7686075;32;40964;-83
2023/09/06 02:25:12;;;;;;;4.95;3.03;;;;;;;17.65;56.20;100514.75;7685999;32;38154;-83
2023/09/06 02:29:29;;;;;;;5.20;3.00;;;;;;;17.58;56.90;100534.44;7686196;32;37044;-83
2023/09/06 02:33:45;;;;;;;6.43;3.20;;;;;;;17.72;56.60;100519.91;7685695;32;39892;-83
2023/09/06 02:38:01;;;;;;;6.12;3.03;;;;;;;17.87;55.41;100511.37;7685795;32;41167;-83
2023/09/06 02:42:17;;;;;;;4.97;2.75;;;;;;;17.67;56.38;100512.53;7685556;32;37894;-83
2023/09/06 02:46:34;;;;;;;4.37;3.00;;;;;;;17.68;56.27;100514.16;7685562;32;37042;-83
2023/09/06 02:50:51;;;;;;;8.02;3.58;;;;;;;17.83;55.60;100510.31;7685176;32;39389;-83
2023/09/06 02:55:10;;;;;;;4.35;3.00;;;;;;;17.73;56.15;100504.97;7685321;32;39964;-84
2023/09/06 02:59:28;;;;;;;5.85;2.83;;;;;;;17.39;57.75;100506.91;7685130;32;38787;-83
2023/09/06 03:03:44;;;;;;;6.32;3.03;;;;;;;17.56;57.27;100506.38;7685581;32;37362;-82
2023/09/06 03:08:00;;;;;;;6.87;3.45;;;;;;;17.58;56.59;100498.59;7685765;32;39380;-83
2023/09/06 03:12:17;;;;;;;5.75;3.37;;;;;;;17.40;57.47;100510.47;7685490;32;39890;-83
2023/09/06 03:16:38;;;;;;;6.75;3.45;;;;;;;17.42;57.74;100511.03;7685259;32;38549;-83
2023/09/06 03:20:55;;;;;;;5.70;3.40;;;;;;;17.39;57.52;100517.12;7685517;32;37928;-83
2023/09/06 03:25:14;;;;;;;6.90;3.50;;;;;;;17.41;57.31;100521.19;7684199;32;39234;-82
2023/09/06 03:29:31;;;;;;;6.82;3.25;;;;;;;17.33;57.38;100515.56;7685317;32;40804;-83
2023/09/06 03:33:48;;;;;;;5.60;3.22;;;;;;;17.23;57.18;100517.34;7684024;32;38785;-83
2023/09/06 03:38:10;;;;;;;6.25;3.50;;;;;;;17.19;57.79;100518.25;7685253;32;37866;-84
2023/09/06 03:42:26;;;;;;;5.93;3.33;;;;;;;17.11;58.20;100513.41;7685193;32;40243;-83
2023/09/06 03:46:42;;;;;;;4.80;2.92;;;;;;;17.36;56.86;100514.97;7684029;32;40890;-82
2023/09/06 03:51:03;;;;;;;4.80;2.90;;;;;;;17.44;56.56;100514.28;7685119;32;38579;-82
2023/09/06 03:55:20;;;;;;;6.55;2.97;;;;;;;17.33;57.10;100516.38;7685313;32;37716;-83
2023/09/06 03:59:36;;;;;;;7.82;3.47;;;;;;;17.42;56.74;100522.03;7684596;32;39287;-83
2023/09/06 04:03:53;;;;;;;5.43;3.03;;;;;;;17.27;57.25;100523.91;7685004;32;40785;-83
2023/09/06 04:08:09;;;;;;;7.20;2.83;;;;;;;17.21;57.53;100516.84;7684937;32;37809;-83
2023/09/06 04:12:26;;;;;;;6.72;2.87;;;;;;;17.16;57.46;100519.69;7684953;32;37833;-83
2023/09/06 04:16:42;;;;;;;4.35;3.22;;;;;;;17.34;56.65;100525.47;7684731;32;40189;-83
2023/09/06 04:21:00;;;;;;;5.97;3.22;;;;;;;17.14;57.35;100532.09;7684413;32;40785;-83
2023/09/06 04:25:22;;;;;;;5.50;3.00;;;;;;;17.59;55.85;100533.34;7684547;32;38822;-83
2023/09/06 04:29:39;;;;;;;7.10;3.30;;;;;;;17.57;55.72;100526.47;7684650;32;37476;-83
2023/09/06 04:33:58;;;;;;;4.87;3.00;;;;;;;17.15;56.99;100542.00;7684681;32;40013;-83
2023/09/06 04:38:17;;;;;;;6.80;3.03;;;;;;;17.03;57.57;100539.69;7684542;32;40815;-82
2023/09/06 04:42:33;;;;;;;8.23;3.37;;;;;;;17.18;57.21;100550.50;7678452;32;171056;-83
2023/09/06 04:46:50;;;;;;;7.47;3.20;;;;;;;17.17;57.44;100557.09;7684391;32;37083;-82
2023/09/06 04:51:06;;;;;;;6.85;3.10;;;;;;;17.16;57.61;100558.25;7684534;32;39400;-84
2023/09/06 04:55:23;;;;;;;6.78;3.22;;;;;;;17.30;56.86;100551.97;7684143;32;40835;-84
2023/09/06 04:59:39;;;;;;;5.50;3.00;;;;;;;17.36;56.77;100564.56;7683857;32;37930;-82
2023/09/06 05:03:56;;;;;;;6.40;3.08;;;;;;;17.36;57.28;100561.81;7683989;32;37262;-83
2023/09/06 05:08:12;;;;;;;5.25;3.12;;;;;;;17.36;57.17;100565.38;7683687;32;40306;-83
2023/09/06 05:12:29;;;;;;;5.47;3.12;;;;;;;17.40;57.44;100568.34;7682311;32;41234;-83
2023/09/06 05:16:45;;;;;;;6.55;3.50;;;;;;;17.46;57.57;100567.16;7683496;32;38616;-83
2023/09/06 05:21:04;;;;;;;4.43;3.05;;;;;;;17.46;57.79;100558.91;7683639;32;37660;-82
2023/09/06 05:25:21;;;;;;;7.25;3.47;;;;;;;17.39;58.07;100566.72;7683479;32;39177;-83
2023/09/06 05:29:37;;;;;;;7.22;3.40;;;;;;;17.61;57.59;100566.13;7683359;32;40942;-82
2023/09/06 05:33:53;;;;;;;5.90;3.20;;;;;;;17.76;57.28;100570.56;7683223;32;37954;-83
2023/09/06 05:38:09;;;;;;;6.20;3.00;;;;;;;17.78;57.29;100574.66;7683119;32;37002;-75
2023/09/06 05:42:26;;;;;;;6.70;2.90;;;;;;;17.70;57.75;100556.03;7682355;32;39418;-71
2023/09/06 05:46:43;;;;;;;9.18;3.60;;;;;;;18.24;58.45;100555.69;7682752;32;40884;-72
2023/09/06 05:50:59;;;;;;;7.28;3.35;;;;;;;18.34;56.98;100561.00;7682760;32;37691;-81
2023/09/06 05:55:16;;;;;;;6.68;3.08;;;;;;;18.52;56.34;100559.28;7682230;32;37356;-84
2023/09/06 05:59:32;;;;;;;7.65;3.35;;;;;;;18.52;56.20;100556.53;7691691;32;39254;-83
2023/09/06 06:03:48;;;;;;;8.23;3.50;;;;;;;18.80;55.51;100568.38;7681945;32;39852;-82
2023/09/06 06:08:05;;;;;;;8.02;3.20;;;;;;;18.98;55.42;100574.12;7682325;32;38081;-82
2023/09/06 06:12:22;;;;;;;5.15;3.17;;;;;;;18.91;55.86;100574.53;7682446;32;37081;-81
2023/09/06 06:16:39;;;;;;;10.48;3.60;;;;;;;19.19;55.18;100571.72;7682202;32;40186;-83
2023/09/06 06:20:58;;;;;;;7.07;3.42;;;;;;;19.34;54.53;100574.16;7682375;32;39957;-83
2023/09/06 06:25:14;;;;;;;6.62;3.72;;;;;;;19.09;54.44;100573.59;7685701;32;38023;-81
2023/09/06 06:29:31;;;;;;;10.68;3.70;;;;;;;18.94;55.69;100576.69;7685682;32;36815;-82
2023/09/06 06:33:48;;;;;;;10.23;3.85;;;;;;;19.34;55.16;100574.16;7685811;32;39314;-81
2023/09/06 06:38:04;;;;;;;5.75;3.12;;;;;;;19.48;54.02;100563.84;7685732;32;39979;-82
2023/09/06 06:42:21;;;;;;;4.68;3.08;;;;;;;19.39;54.36;100576.78;7685624;32;38136;-83
2023/09/06 06:46:39;;;;;;;6.30;3.03;;;;;;;19.98;52.49;100576.75;7684845;32;37757;-83
2023/09/06 06:50:56;;;;;;;5.00;2.87;;;;;;;19.83;51.20;100580.75;7694968;32;38775;-78
2023/09/06 06:55:12;;;;;;;4.12;2.55;;;;;;;19.58;51.83;100578.59;7685501;32;40039;-75
2023/09/06 06:59:28;;;;;;;4.32;2.47;;;;;;;19.59;52.29;100582.97;7685497;32;38012;-72
2023/09/06 07:03:45;;;;;;;9.57;2.65;;;;;;;20.04;50.71;100581.06;7685494;32;37152;-73
2023/09/06 07:08:04;;;;;;;4.60;2.53;;;;;;;20.54;49.49;100581.94;7685560;32;40145;-72
2023/09/06 07:12:20;;;;;;;4.97;2.92;;;;;;;20.32;51.25;100583.63;7685388;32;40765;-74
2023/09/06 07:16:37;;;;;;;4.35;2.60;;;;;;;21.08;49.52;100584.59;7685428;32;37684;-74
2023/09/06 07:20:54;;;;;;;5.70;2.50;;;;;;;20.97;47.76;100573.81;7685364;32;37274;-75
2023/09/06 07:25:13;;;;;;;8.32;3.03;;;;;;;21.59;48.00;100577.44;7684975;32;39243;-74
2023/09/06 07:29:29;;;;;;;4.95;2.50;;;;;;;21.87;47.12;100571.53;7685876;32;39942;-74
2023/09/06 07:33:45;;;;;;;5.28;3.08;;;;;;;21.93;47.45;100564.69;7684352;32;38041;-73
2023/09/06 07:38:01;;;;;;;7.78;3.03;;;;;;;22.25;46.90;100565.25;7684835;32;37008;-80
2023/09/06 07:42:18;;;;;;;6.35;3.10;;;;;;;22.40;46.58;100566.69;7670272;32;39420;-80
2023/09/06 07:46:34;;;;;;;6.35;3.12;;;;;;;22.45;45.26;100570.09;7673514;32;40042;-80
2023/09/06 07:50:50;;;;;;;6.78;2.70;;;;;;;22.30;45.63;100574.25;7679654;32;37939;-81
2023/09/06 07:55:07;;;;;;;6.85;2.80;;;;;;;22.87;44.12;100575.78;7684887;32;37099;-82
2023/09/06 07:59:23;;;;;;;6.10;2.75;;;;;;;22.81;43.92;100566.00;7680323;32;39335;-79
2023/09/06 08:03:40;;;;;;;8.80;2.97;;;;;;;22.54;44.25;100572.84;7668556;32;40369;-78
2023/09/06 08:07:58;;;;;;;3.85;2.42;;;;;;;22.86;44.18;100565.00;7673491;32;38477;-77
2023/09/06 08:12:14;;;;;;;3.30;2.12;;;;;;;23.51;42.96;100573.06;7669827;32;37157;-79
2023/09/06 08:16:32;;;;;;;7.47;2.97;;;;;;;23.88;42.29;100568.50;7669788;32;40173;-79
2023/09/06 08:20:48;;;;;;;4.75;2.95;;;;;;;24.21;41.91;100567.66;7670228;32;40059;-79
2023/09/06 08:25:05;;;;;;;4.93;2.58;;;;;;;24.40;41.32;100569.06;7669172;32;37496;-79
2023/09/06 08:29:21;;;;;;;6.28;2.87;;;;;;;24.58;40.88;100564.94;7670718;32;36897;-79
2023/09/06 08:33:38;;;;;;;4.00;2.30;;;;;;;24.34;38.85;100565.72;7669116;32;39536;-79
2023/09/06 08:37:54;;;;;;;5.55;2.75;;;;;;;24.51;39.23;100567.47;7673486;32;40927;-79
2023/09/06 08:42:10;;;;;;;4.93;2.70;;;;;;;24.58;38.37;100562.16;7682975;32;37899;-79
2023/09/06 08:46:41;;;;;;;3.28;2.33;;;;;;;25.07;38.82;100550.16;7681488;32;37401;-80
2023/09/06 08:50:58;;;;;;;6.05;2.60;;;;;;;25.25;37.24;100557.12;7683344;32;39272;-79
2023/09/06 08:55:15;;;;;;;3.95;2.25;;;;;;;25.10;36.84;100561.41;7683193;32;40754;-80
2023/09/06 08:59:33;;;;;;;8.35;2.53;;;;;;;25.25;36.51;100548.75;7683030;32;38668;-80
2023/09/06 09:03:49;;;;;;;4.47;2.30;;;;;;;25.23;36.24;100551.03;7682893;32;37590;-84
2023/09/06 09:08:09;;;;;;;4.03;2.67;;;;;;;25.49;35.96;100558.19;7681758;32;39398;-85
2023/09/06 09:12:27;;;;;;;3.50;2.00;;;;;;;25.20;35.35;100559.28;7682408;32;40754;-83
2023/09/06 09:16:43;;;;;;;5.43;2.30;;;;;;;26.20;33.93;100544.59;7682698;32;38749;-83
2023/09/06 09:21:05;;;;;;;5.28;2.10;;;;;;;26.03;35.28;100542.97;7682007;32;37908;-86
2023/09/06 09:25:23;;;;;;;5.47;2.20;;;;;;;26.67;33.98;100537.38;7682619;32;40144;-82
2023/09/06 09:29:39;;;;;;;5.37;2.20;;;;;;;26.56;32.59;100539.88;7681049;32;40019;-81
2023/09/06 09:33:55;;;;;;;5.53;2.35;;;;;;;25.94;33.24;100526.38;7680394;32;37903;-81
2023/09/06 09:38:12;;;;;;;4.37;2.10;;;;;;;26.56;32.57;100523.94;7682288;32;37940;-80
2023/09/06 09:42:28;;;;;;;4.70;2.12;;;;;;;26.13;32.40;100528.47;7681966;32;40140;-81
2023/09/06 09:46:45;;;;;;;6.10;2.37;;;;;;;26.89;33.78;100519.94;7681734;32;40794;-82
2023/09/06 09:51:04;;;;;;;4.18;2.30;;;;;;;26.46;31.61;100516.09;7681651;32;38448;-81
2023/09/06 09:55:31;;;;;;;4.28;2.08;;;;;;;26.52;31.76;100508.25;7681905;32;36891;-81
2023/09/06 09:59:49;;;;;;;5.20;2.30;;;;;;;27.29;30.62;100509.62;7684494;32;39012;-81
2023/09/06 10:04:06;;;;;;;3.00;2.03;;;;;;;28.03;29.16;100515.06;7684284;32;39994;-80
2023/09/06 10:08:23;;;;;;;2.72;1.92;;;;;;;28.05;28.92;100507.09;7684168;32;37748;-81
2023/09/06 10:12:48;;;;;;;3.90;2.00;;;;;;;27.67;28.00;100508.75;7681913;32;38002;-84
2023/09/06 10:17:05;;;;;;;5.28;2.20;;;;;;;28.35;28.55;100505.56;7683321;32;38830;-83
2023/09/06 10:21:23;;;;;;;5.53;2.22;;;;;;;28.57;27.02;100499.13;7683471;32;39507;-83
2023/09/06 10:25:49;;;;;;;4.05;2.00;;;;;;;29.13;27.23;100499.50;7685257;32;37886;-83
2023/09/06 10:30:10;;;;;;;2.97;1.90;;;;;;;28.97;26.56;100496.91;7685749;32;36835;-83
2023/09/06 10:34:30;;;;;;;3.78;2.10;;;;;;;29.73;25.47;100496.62;7685955;32;39105;-83
2023/09/06 10:38:52;;;;;;;2.97;1.77;;;;;;;29.90;25.37;100489.59;7685907;32;40081;-83
2023/09/06 10:43:10;;;;;;;4.82;2.20;;;;;;;29.98;23.55;100484.03;7684955;32;38593;-84
2023/09/06 10:47:26;;;;;;;3.10;2.10;;;;;;;30.31;24.07;100480.31;7685525;32;37892;-84
2023/09/06 10:51:55;;;;;;;3.55;1.92;;;;;;;29.36;25.08;100488.19;7685922;32;40061;-83
2023/09/06 10:56:12;;;;;;;3.60;1.90;;;;;;;29.74;24.00;100480.59;7685930;32;40670;-83
2023/09/06 11:00:34;;;;;;;2.78;1.90;;;;;;;29.54;24.68;100475.16;7677328;32;38711;-84
2023/09/06 11:05:30;;;;;;;4.47;2.40;;;;;;;29.04;25.15;100474.53;7685294;32;37881;-84
2023/09/06 11:09:50;;;;;;;3.67;1.92;;;;;;;29.55;23.64;100462.72;7684693;32;40131;-85
2023/09/06 11:14:06;;;;;;;3.37;1.65;;;;;;;29.85;23.14;100463.84;7685505;32;40120;-83
2023/09/06 11:18:23;;;;;;;2.70;1.80;;;;;;;30.48;22.66;100453.53;7684947;32;38696;-83
2023/09/06 11:23:00;;;;;;;3.25;1.70;;;;;;;31.04;22.42;100446.59;7684260;32;37669;-83
2023/09/06 11:27:17;;;;;;;4.43;2.10;;;;;;;30.80;22.57;100453.72;7684743;32;39338;-83
2023/09/06 11:31:34;;;;;;;3.50;1.83;;;;;;;30.85;22.60;100452.53;7684982;32;40768;-83
2023/09/06 11:35:58;;;;;;;4.40;2.28;;;;;;;29.83;23.32;100452.19;7684504;32;37945;-83
2023/09/06 11:40:19;;;;;;;6.57;2.10;;;;;;;31.17;21.79;100446.28;7683735;32;38019;-83
2023/09/06 11:44:39;;;;;;;4.47;1.85;;;;;;;31.61;22.23;100437.53;7683546;32;39325;-83
2023/09/06 11:48:55;;;;;;;4.62;1.90;;;;;;;31.42;23.09;100429.44;7683996;32;40547;-82
2023/09/06 11:53:13;;;;;;;3.45;2.10;;;;;;;30.50;22.36;100431.44;7683807;32;38067;-83
2023/09/06 11:57:31;;;;;;;5.97;2.50;;;;;;;30.59;22.95;100417.03;7685164;32;37743;-83
2023/09/06 12:01:52;;;;;;;3.25;2.00;;;;;;;31.29;21.59;100411.28;7684899;32;39323;-83
2023/09/06 12:06:09;;;;;;;4.10;2.10;;;;;;;30.29;22.43;100412.41;7685280;32;40880;-83
2023/09/06 12:10:27;;;;;;;2.25;1.70;;;;;;;31.25;22.56;100402.84;7684874;32;37919;-82
2023/09/06 12:14:44;;;;;;;4.28;2.12;;;;;;;31.61;21.97;100402.94;7683650;32;37667;-83
2023/09/06 12:19:01;;;;;;;3.37;2.00;;;;;;;32.11;20.95;100399.31;7684518;32;39544;-84
2023/09/06 12:23:20;;;;;;;5.68;1.98;;;;;;;31.72;20.61;100397.28;7683291;32;39683;-83
2023/09/06 12:27:37;;;;;;;3.15;1.92;;;;;;;32.63;21.01;100387.53;7684624;32;38788;-83
2023/09/06 12:31:53;;;;;;;3.85;1.92;;;;;;;32.01;20.68;100384.00;7684617;32;37631;-83
2023/09/06 12:36:11;;;;;;;4.35;1.90;;;;;;;32.40;20.97;100388.00;7683299;32;39982;-83
2023/09/06 12:40:28;;;;;;;4.55;2.05;;;;;;;32.48;20.16;100370.62;7683122;32;39811;-83
2023/09/06 12:44:45;;;;;;;3.87;1.90;;;;;;;32.19;20.30;100373.53;7684101;32;37853;-83
2023/09/06 12:49:01;;;;;;;6.87;2.33;;;;;;;32.33;21.20;100372.69;7684240;32;37816;-83
2023/09/06 12:53:18;;;;;;;5.72;2.20;;;;;;;32.13;19.94;100375.16;7684300;32;39479;-84
2023/09/06 12:57:35;;;;;;;4.30;2.03;;;;;;;32.47;19.83;100357.72;7684065;32;39970;-84
2023/09/06 13:01:51;;;;;;;4.28;2.10;;;;;;;32.73;19.79;100362.09;7683818;32;38592;-83
2023/09/06 13:06:08;;;;;;;3.35;2.15;;;;;;;33.28;19.16;100351.34;7683985;32;37303;-84
2023/09/06 13:10:25;;;;;;;4.50;2.15;;;;;;;33.51;18.68;100342.25;7683834;32;39308;-84
2023/09/06 13:14:41;;;;;;;2.92;1.95;;;;;;;33.85;18.06;100336.75;7683757;32;40657;-84
2023/09/06 13:18:58;;;;;;;3.17;1.80;;;;;;;32.99;18.29;100336.56;7683494;32;38767;-84
2023/09/06 13:23:14;;;;;;;4.70;2.05;;;;;;;32.71;18.90;100341.16;7683543;32;37056;-84
2023/09/06 13:27:32;;;;;;;2.97;1.85;;;;;;;32.83;17.97;100339.88;7683495;32;39306;-84
2023/09/06 13:31:48;;;;;;;4.00;2.12;;;;;;;33.24;17.85;100328.75;7684236;32;38700;-84
2023/09/06 13:36:05;;;;;;;5.03;1.98;;;;;;;33.96;18.29;100319.69;7686434;32;38753;-84
2023/09/06 13:40:22;;;;;;;2.67;1.85;;;;;;;33.88;17.66;100325.84;7686514;32;37914;-85
2023/09/06 13:44:38;;;;;;;4.35;1.70;;;;;;;33.64;18.18;100320.75;7686295;32;40163;-85
2023/09/06 13:48:58;;;;;;;4.50;1.98;;;;;;;34.15;17.91;100309.78;7686053;32;40779;-84
2023/09/06 13:53:15;;;;;;;3.80;1.92;;;;;;;34.22;19.49;100311.75;7686473;32;38724;-84
2023/09/06 13:57:31;;;;;;;3.60;2.00;;;;;;;34.91;19.21;100303.19;7686419;32;36776;-75
2023/09/06 14:01:47;;;;;;;4.85;2.03;;;;;;;35.14;17.21;100302.47;7686302;32;39002;-83
2023/09/06 14:06:04;;;;;;;3.55;2.10;;;;;;;34.92;18.16;100304.81;7686213;32;40425;-81
2023/09/06 14:10:21;;;;;;;3.30;2.15;;;;;;;34.80;16.97;100301.31;7681111;32;37957;-81
2023/09/06 14:14:38;;;;;;;2.85;1.80;;;;;;;34.96;17.69;100291.37;7685760;32;37082;-82
2023/09/06 14:18:55;;;;;;;5.68;2.10;;;;;;;35.54;17.24;100294.94;7684885;32;40259;-81
2023/09/06 14:23:12;;;;;;;7.78;2.50;;;;;;;35.37;16.84;100289.56;7685308;32;40742;-81
2023/09/06 14:27:28;;;;;;;3.20;1.90;;;;;;;35.99;17.05;100284.44;7685656;32;38765;-81
2023/09/06 14:31:45;;;;;;;3.42;2.17;;;;;;;36.15;16.84;100281.66;7684804;32;38028;-81
2023/09/06 14:36:02;;;;;;;2.62;1.90;;;;;;;36.74;16.30;100282.09;7685656;32;39944;-81
2023/09/06 14:40:19;;;;;;;4.07;2.00;;;;;;;36.09;16.67;100272.06;7684622;32;39860;-81
2023/09/06 14:44:36;;;;;;;3.17;1.70;;;;;;;36.44;16.81;100275.44;7685357;32;37894;-81
2023/09/06 14:48:52;;;;;;;3.78;2.12;;;;;;;36.43;16.48;100273.84;7684879;32;37874;-81
2023/09/06 14:53:09;;;;;;;3.80;1.85;;;;;;;36.46;17.21;100270.94;7685001;32;40704;-81
2023/09/06 14:57:25;;;;;;;3.83;2.00;;;;;;;36.14;16.20;100271.56;7685506;32;39717;-81
2023/09/06 15:01:42;;;;;;;6.72;2.00;;;;;;;36.30;16.94;100272.91;7684293;32;37428;-81
2023/09/06 15:05:58;;;;;;;6.55;1.90;;;;;;;35.30;17.49;100273.50;7685425;32;37211;-80
2023/09/06 15:10:15;;;;;;;3.87;2.20;;;;;;;34.90;18.06;100270.47;7684140;32;40060;-80
2023/09/06 15:14:31;;;;;;;4.03;2.00;;;;;;;34.40;18.78;100269.88;7685284;32;39851;-81
2023/09/06 15:18:49;;;;;;;4.97;2.28;;;;;;;34.90;18.19;100276.12;7684490;32;38772;-81
2023/09/06 15:23:06;;;;;;;3.12;1.90;;;;;;;34.59;18.77;100276.91;7684375;32;37774;-81
2023/09/06 15:27:23;;;;;;;5.68;2.08;;;;;;;34.45;18.82;100277.13;7685206;32;40134;-82
2023/09/06 15:31:39;;;;;;;3.35;1.92;;;;;;;34.35;19.23;100276.03;7684148;32;40579;-81
2023/09/06 15:35:55;;;;;;;2.60;1.83;;;;;;;34.49;18.88;100282.72;7684950;32;37785;-81
2023/09/06 15:40:12;;;;;;;2.58;1.77;;;;;;;34.59;17.95;100284.63;7684293;32;37031;-81
2023/09/06 15:44:30;;;;;;;3.97;2.30;;;;;;;34.52;18.76;100282.69;7684132;32;39746;-81
2023/09/06 15:48:47;;;;;;;5.95;1.85;;;;;;;34.50;18.41;100278.69;7683714;32;40054;-81
2023/09/06 15:53:03;;;;;;;3.70;1.60;;;;;;;34.66;18.46;100275.22;7683893;32;37789;-81
2023/09/06 15:57:20;;;;;;;2.97;1.70;;;;;;;34.67;18.00;100286.12;7684145;32;38102;-81
2023/09/06 16:01:36;;;;;;;2.78;1.60;;;;;;;34.79;18.67;100276.28;7672318;32;39868;-81
2023/09/06 16:05:52;;;;;;;4.22;2.10;;;;;;;34.63;18.46;100288.19;7684707;32;39876;-81
2023/09/06 16:10:09;;;;;;;2.67;1.80;;;;;;;34.57;18.47;100281.41;7683805;32;38002;-82
2023/09/06 16:14:26;;;;;;;7.00;2.20;;;;;;;34.65;18.20;100282.94;7683812;32;37740;-81
2023/09/06 16:18:46;;;;;;;4.43;1.83;;;;;;;34.60;18.62;100284.19;7684396;32;39389;-81
2023/09/06 16:23:03;;;;;;;3.13;1.87;;;;;;;34.31;19.17;100278.09;7683752;32;40683;-81
2023/09/06 16:27:21;;;;;;;4.03;2.00;;;;;;;34.09;18.95;100288.84;7684349;32;37939;-82
2023/09/06 16:31:38;;;;;;;3.30;2.00;;;;;;;33.93;19.19;100291.47;7683757;32;38615;-81
2023/09/06 16:35:57;;;;;;;2.95;1.92;;;;;;;33.61;19.51;100296.16;7684284;32;39799;-81
2023/09/06 16:40:20;;;;;;;6.47;1.98;;;;;;;33.22;20.02;100297.31;7683154;32;39675;-81
2023/09/06 16:44:41;;;;;;;3.50;1.80;;;;;;;32.73;20.65;100307.66;7683176;32;37769;-81
2023/09/06 16:48:58;;;;;;;4.07;1.87;;;;;;;32.13;21.76;100306.66;7683969;32;37547;-82
2023/09/06 16:53:14;;;;;;;3.45;1.87;;;;;;;31.71;22.42;100311.16;7683232;32;40330;-82
2023/09/06 16:57:36;;;;;;;2.85;2.10;;;;;;;31.31;22.83;100310.31;7682696;32;39984;-81
2023/09/06 17:01:54;;;;;;;3.53;2.03;;;;;;;31.02;23.29;100311.06;7683118;32;38746;-82
2023/09/06 17:06:11;;;;;;;4.25;1.75;;;;;;;30.66;24.12;100316.56;7681800;32;36903;-81
2023/09/06 17:10:29;;;;;;;3.08;1.87;;;;;;;30.21;24.48;100318.75;7683449;32;39983;-81
2023/09/06 17:14:47;;;;;;;2.45;1.83;;;;;;;29.83;24.94;100320.94;7682851;32;40606;-81
2023/09/06 17:19:07;;;;;;;4.32;1.85;;;;;;;29.33;25.92;100324.09;7683161;32;38385;-81
2023/09/06 17:23:25;;;;;;;6.43;2.28;;;;;;;28.92;26.58;100338.09;7682548;32;37284;-82
2023/09/06 17:27:42;;;;;;;5.72;2.30;;;;;;;28.44;27.79;100344.31;7683227;32;40110;-82
2023/09/06 17:32:04;;;;;;;2.78;1.80;;;;;;;28.18;28.30;100347.94;7682480;32;40796;-82
2023/09/06 17:36:25;;;;;;;4.00;2.20;;;;;;;27.65;28.96;100353.50;7682216;32;38755;-82
2023/09/06 17:40:43;;;;;;;4.65;2.30;;;;;;;27.42;28.83;100357.09;7682866;32;37070;-81
2023/09/06 17:45:02;;;;;;;4.93;2.03;;;;;;;27.11;29.42;100358.09;7680693;32;39404;-83
2023/09/06 17:49:18;;;;;;;2.87;1.77;;;;;;;27.01;29.19;100369.88;7682468;32;40539;-82
2023/09/06 17:53:39;;;;;;;4.15;1.90;;;;;;;26.75;29.76;100371.34;7682328;32;38091;-83
2023/09/06 17:57:57;;;;;;;2.55;1.80;;;;;;;26.70;29.66;100380.03;7681545;32;37014;-82
2023/09/06 18:02:14;;;;;;;7.95;2.10;;;;;;;26.50;29.50;100385.59;7682348;32;38708;-83
2023/09/06 18:06:31;;;;;;;4.03;2.10;;;;;;;26.49;29.43;100386.78;7682338;32;39899;-83
2023/09/06 18:10:47;;;;;;;12.85;2.33;;;;;;;26.39;29.98;100384.56;7681003;32;37757;-83
2023/09/06 18:15:08;;;;;;;3.53;2.00;;;;;;;26.01;30.71;100392.47;7682340;32;37087;-82
2023/09/06 18:19:25;;;;;;;5.00;2.50;;;;;;;25.56;31.56;100398.47;7684462;32;39302;-83
2023/09/06 18:23:47;;;;;;;5.95;2.47;;;;;;;25.28;32.24;100400.16;7686055;32;40433;-83
2023/09/06 18:28:08;;;;;;;;;;;;;;;25.29;31.97;100400.97;7686300;32;38180;-86
2023/09/06 18:32:24;;;;;;;4.20;2.00;;;;;;;25.29;31.91;100412.12;7676023;32;36900;-84
2023/09/06 18:36:41;;;;;;;5.62;2.50;;;;;;;25.02;32.63;100420.09;7676439;32;39417;-85
2023/09/06 18:40:58;;;;;;;4.30;2.10;;;;;;;24.91;32.77;100417.00;7685270;32;39767;-85
2023/09/06 18:45:15;;;;;;;7.47;2.47;;;;;;;24.64;33.64;100426.94;7684977;32;38036;-85
2023/09/06 18:49:36;;;;;;;6.37;2.15;;;;;;;24.50;34.39;100427.28;7676695;32;37981;-86
2023/09/06 18:53:53;;;;;;;4.35;2.20;;;;;;;24.40;34.96;100429.75;7672316;32;39367;-85
2023/09/06 18:58:14;;;;;;;4.28;2.05;;;;;;;24.19;35.28;100433.47;7682475;32;39892;-85
2023/09/06 19:02:30;;;;;;;7.18;2.12;;;;;;;24.32;34.74;100432.31;7679843;32;38164;-84
2023/09/06 19:06:46;;;;;;;4.62;2.00;;;;;;;23.99;35.54;100438.81;7670720;32;35811;-84
2023/09/06 19:11:04;;;;;;;8.25;2.45;;;;;;;23.95;35.41;100435.09;7671842;32;39379;-84
2023/09/06 19:15:22;;;;;;;4.60;2.45;;;;;;;23.66;36.30;100438.84;7679609;32;39882;-85
2023/09/06 19:19:38;;;;;;;5.85;2.33;;;;;;;23.50;36.56;100441.47;7683826;32;38132;-85
2023/09/06 19:23:54;;;;;;;3.67;2.30;;;;;;;23.43;36.72;100441.22;7683630;32;37834;-85
2023/09/06 19:28:11;;;;;;;5.60;2.03;;;;;;;23.36;36.93;100443.75;7684015;32;40033;-85
2023/09/06 19:32:27;;;;;;;4.47;2.47;;;;;;;23.30;37.10;100443.16;7678572;32;40639;-85
2023/09/06 19:36:44;;;;;;;6.53;2.87;;;;;;;23.04;37.51;100437.78;7671527;32;37982;-86
2023/09/06 19:41:06;;;;;;;4.82;2.60;;;;;;;22.86;37.86;100451.84;7669775;32;36886;-86
2023/09/06 19:45:22;;;;;;;6.10;2.45;;;;;;;22.86;37.92;100456.59;7670522;32;39521;-86
2023/09/06 19:49:57;;;;;;;3.42;2.37;;;;;;;22.78;38.40;100455.50;7670891;32;40576;-84
2023/09/06 19:54:26;;;;;;;3.40;1.87;;;;;;;22.84;38.51;100443.03;7661517;32;38027;-83
2023/09/06 19:58:51;;;;;;;5.57;2.40;;;;;;;22.63;39.17;100453.34;7685198;32;37022;-84